createdAt,value
2018-12-22T00:02:15.808Z,-5.92
2018-12-22T00:04:44.335Z,-6.07
2018-12-22T00:07:12.322Z,-6.24
2018-12-22T00:09:40.345Z,-6.24
2018-12-22T00:12:08.354Z,-6.35
2018-12-22T00:14:36.323Z,-6.35
2018-12-22T00:17:04.368Z,-6.28
2018-12-22T00:19:32.445Z,-6.41
2018-12-22T00:22:00.424Z,-6.35
2018-12-22T00:24:28.377Z,-6.26
2018-12-22T00:26:56.279Z,-6.23
2018-12-22T00:29:24.295Z,-6.25
2018-12-22T00:31:52.375Z,-6.26
2018-12-22T00:34:20.355Z,-6.31
2018-12-22T00:36:48.498Z,-6.31
2018-12-22T00:39:16.551Z,-6.33
2018-12-22T00:41:44.528Z,-6.41
2018-12-22T00:44:12.564Z,-6.36
2018-12-22T00:46:40.572Z,-6.56
2018-12-22T00:49:08.511Z,-6.45
2018-12-22T00:51:36.481Z,-6.46
2018-12-22T00:54:04.470Z,-6.55
2018-12-22T00:56:32.462Z,-6.59
2018-12-22T00:59:00.587Z,-6.60
2018-12-22T01:01:28.547Z,-6.58
2018-12-22T01:03:56.469Z,-6.59
2018-12-22T01:06:24.365Z,-6.68
2018-12-22T01:08:52.348Z,-6.87
2018-12-22T01:11:20.443Z,-6.94
2018-12-22T01:13:48.414Z,-7.02
2018-12-22T01:16:16.334Z,-7.07
2018-12-22T01:18:44.322Z,-7.05
2018-12-22T01:21:12.345Z,-7.10
2018-12-22T01:23:40.328Z,-7.13
2018-12-22T01:26:08.277Z,-7.24
2018-12-22T01:28:39.570Z,-7.28
2018-12-22T01:31:06.426Z,-7.28
2018-12-22T01:33:34.398Z,-7.36
2018-12-22T01:36:02.467Z,-7.37
2018-12-22T01:38:30.499Z,-7.33
2018-12-22T01:40:58.450Z,-7.30
2018-12-22T01:43:26.369Z,-7.44
2018-12-22T01:45:54.352Z,-7.48
2018-12-22T01:48:22.330Z,-7.55
2018-12-22T01:50:50.302Z,-7.63
2018-12-22T01:53:18.273Z,-7.67
2018-12-22T01:55:46.804Z,-7.61
2018-12-22T01:58:14.752Z,-7.51
2018-12-22T02:00:42.747Z,-7.40
2018-12-22T02:03:10.703Z,-7.35
2018-12-22T02:05:38.625Z,-7.24
2018-12-22T02:08:06.824Z,-7.21
2018-12-22T02:10:34.782Z,-7.27
2018-12-22T02:13:02.771Z,-7.27
2018-12-22T02:15:30.707Z,-7.12
2018-12-22T02:17:58.672Z,-7.23
2018-12-22T02:20:26.647Z,-7.18
2018-12-22T02:22:54.599Z,-7.36
2018-12-22T02:25:22.588Z,-7.52
2018-12-22T02:27:50.677Z,-7.62
2018-12-22T02:30:18.651Z,-7.60
2018-12-22T02:32:46.591Z,-7.69
2018-12-22T02:35:14.569Z,-7.76
2018-12-22T02:37:42.505Z,-7.88
2018-12-22T02:40:10.477Z,-7.94
2018-12-22T02:42:38.457Z,-7.89
2018-12-22T02:45:06.719Z,-7.74
2018-12-22T02:47:34.682Z,-7.80
2018-12-22T02:50:02.626Z,-7.78
2018-12-22T02:52:30.596Z,-7.73
2018-12-22T02:54:58.536Z,-7.71
2018-12-22T02:57:26.491Z,-7.56
2018-12-22T02:59:54.496Z,-7.71
2018-12-22T03:02:22.513Z,-7.69
2018-12-22T03:04:50.441Z,-7.70
2018-12-22T03:07:18.415Z,-7.52
2018-12-22T03:09:46.358Z,-7.58
2018-12-22T03:12:14.333Z,-7.51
2018-12-22T03:14:42.298Z,-7.57
2018-12-22T03:17:10.202Z,-7.50
2018-12-22T03:19:38.148Z,-7.38
2018-12-22T03:22:06.287Z,-7.41
2018-12-22T03:24:34.434Z,-7.44
2018-12-22T03:27:02.904Z,-7.46
2018-12-22T03:29:30.843Z,-7.40
2018-12-22T03:31:58.869Z,-7.30
2018-12-22T03:34:26.858Z,-7.34
2018-12-22T03:36:54.799Z,-7.32
2018-12-22T03:39:22.789Z,-7.23
2018-12-22T03:41:50.702Z,-7.04
2018-12-22T03:44:18.639Z,-7.09
2018-12-22T03:46:46.638Z,-7.18
2018-12-22T03:49:14.590Z,-7.24
2018-12-22T03:51:42.476Z,-7.19
2018-12-22T03:54:10.396Z,-7.12
2018-12-22T03:56:38.331Z,-7.24
2018-12-22T03:59:06.372Z,-7.31
2018-12-22T04:01:34.330Z,-7.28
2018-12-22T04:04:02.252Z,-7.23
2018-12-22T04:06:30.251Z,-7.17
2018-12-22T04:08:58.168Z,-7.19
2018-12-22T04:11:26.113Z,-7.20
2018-12-22T04:13:54.050Z,-7.16
2018-12-22T04:16:21.957Z,-7.12
2018-12-22T04:18:49.987Z,-7.17
2018-12-22T04:21:17.935Z,-7.18
2018-12-22T04:23:45.889Z,-7.18
2018-12-22T04:26:13.858Z,-7.14
2018-12-22T04:28:41.814Z,-7.17
2018-12-22T04:31:09.794Z,-7.11
2018-12-22T04:33:37.829Z,-7.09
2018-12-22T04:36:05.745Z,-7.04
2018-12-22T04:38:33.704Z,-7.10
2018-12-22T04:41:01.720Z,-7.11
2018-12-22T04:43:29.676Z,-6.92
2018-12-22T04:45:57.700Z,-6.96
2018-12-22T04:48:25.637Z,-6.95
2018-12-22T04:50:53.573Z,-6.80
2018-12-22T04:53:21.465Z,-6.79
2018-12-22T04:55:49.414Z,-6.70
2018-12-22T04:58:17.334Z,-6.84
2018-12-22T05:00:45.290Z,-6.78
2018-12-22T05:03:13.252Z,-6.65
2018-12-22T05:05:41.246Z,-6.65
2018-12-22T05:08:09.208Z,-6.84
2018-12-22T05:10:37.220Z,-6.85
2018-12-22T05:13:05.205Z,-6.97
2018-12-22T05:15:33.212Z,-7.00
2018-12-22T05:18:01.366Z,-7.09
2018-12-22T05:20:29.339Z,-7.08
2018-12-22T05:22:57.321Z,-7.08
2018-12-22T05:25:25.256Z,-7.24
2018-12-22T05:27:53.198Z,-7.31
2018-12-22T05:30:21.229Z,-7.27
2018-12-22T05:32:49.269Z,-7.27
2018-12-22T05:35:17.206Z,-7.34
2018-12-22T05:37:45.267Z,-7.40
2018-12-22T05:40:13.472Z,-7.36
2018-12-22T05:42:41.484Z,-7.43
2018-12-22T05:45:09.535Z,-7.54
2018-12-22T05:47:37.495Z,-7.40
2018-12-22T05:50:05.925Z,-7.29
2018-12-22T05:52:33.829Z,-7.26
2018-12-22T05:55:01.761Z,-7.19
2018-12-22T05:57:29.780Z,-7.02
2018-12-22T06:00:00.807Z,-6.92
2018-12-22T06:02:27.669Z,-6.84
2018-12-22T06:04:55.645Z,-6.51
2018-12-22T06:07:23.637Z,-6.38
2018-12-22T06:09:51.608Z,-6.51
2018-12-22T06:12:19.573Z,-6.41
2018-12-22T06:14:47.641Z,-6.27
2018-12-22T06:17:16.373Z,-6.21
2018-12-22T06:19:44.309Z,-6.14
2018-12-22T06:22:12.596Z,-5.95
2018-12-22T06:24:40.556Z,-5.89
2018-12-22T06:27:08.974Z,-5.91
2018-12-22T06:29:37.054Z,-5.58
2018-12-22T06:32:05.031Z,-5.77
2018-12-22T06:34:33.294Z,-5.67
2018-12-22T06:37:01.311Z,-5.60
2018-12-22T06:39:29.730Z,-5.44
2018-12-22T06:41:58.065Z,-5.21
2018-12-22T06:44:26.569Z,-5.09
2018-12-22T06:46:54.580Z,-4.80
2018-12-22T06:49:22.715Z,-4.57
2018-12-22T06:51:50.702Z,-4.77
2018-12-22T06:54:18.985Z,-4.53
2018-12-22T06:56:47.001Z,-4.35
2018-12-22T06:59:15.360Z,-4.57
2018-12-22T07:01:43.404Z,-4.61
2018-12-22T07:04:11.662Z,-4.39
2018-12-22T07:06:39.772Z,-4.18
2018-12-22T07:09:08.048Z,-4.14
2018-12-22T07:11:36.617Z,-4.22
2018-12-22T07:14:04.659Z,-4.25
2018-12-22T07:16:33.252Z,-3.93
2018-12-22T07:19:01.262Z,-3.45
2018-12-22T07:21:29.659Z,-3.31
2018-12-22T07:23:57.649Z,-3.56
2018-12-22T07:26:25.842Z,-3.40
2018-12-22T07:28:54.069Z,-2.93
2018-12-22T07:31:22.091Z,-2.87
2018-12-22T07:33:50.298Z,-3.11
2018-12-22T07:36:19.166Z,-2.52
2018-12-22T07:38:48.526Z,-1.85
2018-12-22T07:41:16.630Z,-1.73
2018-12-22T07:43:44.648Z,-1.91
2018-12-22T07:46:12.712Z,-2.22
2018-12-22T07:48:40.753Z,-2.41
2018-12-22T07:51:08.839Z,-2.41
2018-12-22T07:53:36.936Z,-2.16
2018-12-22T07:56:05.229Z,-1.88
2018-12-22T07:58:33.301Z,-1.42
2018-12-22T08:01:01.446Z,-0.99
2018-12-22T08:03:29.497Z,-1.32
2018-12-22T08:05:57.658Z,-1.60
2018-12-22T08:08:25.804Z,-1.47
2018-12-22T08:10:54.060Z,-1.77
2018-12-22T08:13:22.176Z,-1.58
2018-12-22T08:15:50.364Z,-1.66
2018-12-22T08:18:18.576Z,-1.90
2018-12-22T08:20:46.763Z,-2.67
2018-12-22T08:23:14.819Z,-2.18
2018-12-22T08:25:42.993Z,-2.10
2018-12-22T08:28:11.088Z,-2.33
2018-12-22T08:30:43.464Z,-1.64
2018-12-22T08:33:09.535Z,-1.49
2018-12-22T08:35:37.561Z,-1.97
2018-12-22T08:38:05.793Z,-2.12
2018-12-22T08:40:34.436Z,-1.96
2018-12-22T08:43:02.571Z,-1.86
2018-12-22T08:45:30.663Z,-1.30
2018-12-22T08:47:59.326Z,-1.04
2018-12-22T08:50:27.372Z,-1.46
2018-12-22T08:52:55.887Z,-1.34
2018-12-22T08:55:24.047Z,-0.94
2018-12-22T08:57:52.048Z,-0.76
2018-12-22T09:00:20.203Z,-0.91
2018-12-22T09:02:48.598Z,-0.62
2018-12-22T09:05:16.745Z,-0.51
2018-12-22T09:07:44.854Z,-0.19
2018-12-22T09:10:12.963Z,0.34
2018-12-22T09:12:40.972Z,0.10
2018-12-22T09:15:09.307Z,-0.54
2018-12-22T09:17:37.378Z,-0.81
2018-12-22T09:20:08.066Z,-0.84
2018-12-22T09:22:36.257Z,-0.79
2018-12-22T09:25:04.955Z,-0.46
2018-12-22T09:27:33.229Z,-0.40
2018-12-22T09:30:01.553Z,0.01
2018-12-22T16:07:44.266Z,-2.10
2018-12-22T16:10:13.569Z,-2.06
2018-12-22T16:15:39.007Z,-2.27
2018-12-22T16:18:06.929Z,-2.24
2018-12-22T16:20:35.007Z,-2.18
2018-12-22T16:23:03.998Z,-2.32
2018-12-22T16:25:32.256Z,-2.43
2018-12-22T16:28:07.299Z,-2.55
2018-12-22T16:30:41.631Z,-2.61
2018-12-22T16:33:09.899Z,-2.56
2018-12-22T16:35:38.361Z,-2.55
2018-12-22T16:38:06.632Z,-2.64
2018-12-22T16:40:34.924Z,-2.67
2018-12-22T16:43:04.821Z,-2.68
2018-12-22T16:45:33.191Z,-2.45
2018-12-22T16:48:01.199Z,-2.41
2018-12-22T16:50:31.520Z,-2.20
2018-12-22T16:52:59.581Z,-2.10
2018-12-22T16:55:28.073Z,-2.11
2018-12-22T16:58:08.751Z,-2.11
2018-12-22T17:00:41.563Z,-2.16
2018-12-22T17:03:11.171Z,-2.15
2018-12-22T17:05:39.659Z,-2.28
2018-12-22T17:08:07.703Z,-2.35
2018-12-22T17:10:41.973Z,-2.37
2018-12-22T17:13:11.069Z,-2.33
2018-12-22T17:15:42.566Z,-2.35
2018-12-22T17:18:10.445Z,-2.11
2018-12-22T17:20:38.487Z,-2.22
2018-12-22T17:23:14.485Z,-1.88
2018-12-22T17:25:52.574Z,-2.22
2018-12-22T17:28:28.021Z,-2.39
2018-12-22T17:30:50.867Z,-2.39
2018-12-22T17:33:19.346Z,-2.34
2018-12-22T17:35:47.461Z,-2.31
2018-12-22T17:38:15.467Z,-2.21
2018-12-22T17:40:43.446Z,-2.03
2018-12-22T17:43:11.620Z,-2.20
2018-12-22T17:45:39.709Z,-2.32
2018-12-22T17:48:07.767Z,-2.07
2018-12-22T17:50:35.821Z,-2.38
2018-12-22T17:53:04.240Z,-2.49
2018-12-22T17:55:32.423Z,-2.33
2018-12-22T17:58:00.493Z,-1.92
2018-12-22T18:00:28.861Z,-1.87
2018-12-22T18:02:57.097Z,-2.26
2018-12-22T18:05:25.391Z,-2.22
2018-12-22T18:07:53.560Z,-2.12
2018-12-22T18:10:21.810Z,-2.33
2018-12-22T18:12:50.306Z,-2.43
2018-12-22T18:15:20.998Z,-2.41
2018-12-22T18:17:49.422Z,-2.48
2018-12-22T18:20:18.066Z,-2.36
2018-12-22T18:22:46.381Z,-2.25
2018-12-22T18:25:16.174Z,-1.74
2018-12-22T18:27:44.145Z,-1.91
2018-12-22T18:30:12.677Z,-2.33
2018-12-22T18:32:40.950Z,-2.20
2018-12-22T18:35:10.165Z,-2.27
2018-12-22T18:37:38.181Z,-2.48
2018-12-22T18:40:12.162Z,-2.64
2018-12-22T18:42:40.446Z,-2.69
2018-12-22T18:45:10.361Z,-2.79
2018-12-22T18:47:38.588Z,-2.89
2018-12-22T18:50:12.982Z,-2.80
2018-12-22T18:52:41.187Z,-2.36
2018-12-22T18:55:09.452Z,-2.06
2018-12-22T18:57:37.637Z,-1.76
2018-12-22T19:00:13.618Z,-2.06
2018-12-22T19:02:41.649Z,-2.37
2018-12-22T19:05:09.773Z,-2.67
2018-12-22T19:07:37.749Z,-2.79
2018-12-22T19:10:12.601Z,-2.78
2018-12-22T19:12:40.610Z,-2.70
2018-12-22T19:15:08.701Z,-2.67
2018-12-22T19:17:36.700Z,-2.49
2018-12-22T19:20:08.295Z,-2.28
2018-12-22T19:22:36.302Z,-2.28
2018-12-22T19:25:04.657Z,-2.20
2018-12-22T19:27:32.706Z,-2.00
2018-12-22T19:30:00.785Z,-1.82
2018-12-22T19:32:28.817Z,-1.83
2018-12-22T19:34:56.805Z,-1.83
2018-12-22T19:37:24.797Z,-1.47
2018-12-22T19:39:52.798Z,-1.59
2018-12-22T19:42:20.809Z,-1.81
2018-12-22T19:44:48.767Z,-1.71
2018-12-22T19:47:16.879Z,-1.86
2018-12-22T19:49:44.848Z,-1.97
2018-12-22T19:52:12.894Z,-1.83
2018-12-22T19:54:40.892Z,-2.02
2018-12-22T19:57:08.984Z,-1.99
2018-12-22T19:59:38.709Z,-1.74
2018-12-22T20:02:07.048Z,-1.87
2018-12-22T20:04:35.210Z,-1.80
2018-12-22T20:07:03.372Z,-1.87
2018-12-22T20:09:31.301Z,-1.94
2018-12-22T20:11:59.409Z,-1.86
2018-12-22T20:14:27.295Z,-1.86
2018-12-22T20:16:55.428Z,-1.85
2018-12-22T20:19:23.398Z,-1.77
2018-12-22T20:21:51.369Z,-1.68
2018-12-22T20:24:19.350Z,-1.67
2018-12-22T20:26:47.361Z,-1.73
2018-12-22T20:29:15.343Z,-1.77
2018-12-22T20:31:43.263Z,-1.71
2018-12-22T20:34:11.490Z,-1.69
2018-12-22T20:36:39.703Z,-1.59
2018-12-22T20:39:07.792Z,-1.47
2018-12-22T20:41:35.714Z,-1.49
2018-12-22T20:44:03.616Z,-1.45
2018-12-22T20:46:31.567Z,-1.28
2018-12-22T20:48:59.445Z,-1.06
2018-12-22T20:51:27.397Z,-1.26
2018-12-22T20:53:55.312Z,-1.38
2018-12-22T20:56:23.226Z,-1.69
2018-12-22T20:58:51.217Z,-1.98
2018-12-22T21:01:19.238Z,-1.78
2018-12-22T21:03:47.608Z,-1.85
2018-12-22T21:06:20.175Z,-1.90
2018-12-22T21:08:48.232Z,-1.85
2018-12-22T21:11:16.295Z,-1.57
2018-12-22T21:13:44.313Z,-1.60
2018-12-22T21:16:12.278Z,-1.71
2018-12-22T21:18:40.273Z,-1.77
2018-12-22T21:21:08.139Z,-1.79
2018-12-22T21:23:36.023Z,-1.79
2018-12-22T21:26:03.956Z,-1.74
2018-12-22T21:28:31.813Z,-1.65
2018-12-22T21:30:59.755Z,-1.51
2018-12-22T21:33:27.755Z,-1.29
2018-12-22T21:35:55.734Z,-1.45
2018-12-22T21:38:23.770Z,-1.64
2018-12-22T21:40:53.075Z,-1.69
2018-12-22T21:43:21.162Z,-1.57
2018-12-22T21:45:49.330Z,-1.57
2018-12-22T21:48:17.306Z,-1.54
2018-12-22T21:50:45.231Z,-1.48
2018-12-22T21:53:13.209Z,-1.47
2018-12-22T21:55:41.262Z,-1.39
2018-12-22T21:58:09.481Z,-1.28
2018-12-22T22:00:37.571Z,-1.24
2018-12-22T22:03:05.542Z,-1.13
2018-12-22T22:05:33.642Z,-1.03
2018-12-22T22:08:01.626Z,-0.93
2018-12-22T22:10:29.600Z,-1.05
2018-12-22T22:12:57.527Z,-1.34
2018-12-22T22:15:25.488Z,-1.38
2018-12-22T22:17:53.516Z,-1.31
2018-12-22T22:20:21.421Z,-1.32
2018-12-22T22:22:49.299Z,-1.40
2018-12-22T22:25:17.207Z,-1.69
2018-12-22T22:27:45.048Z,-1.74
2018-12-22T22:30:13.049Z,-1.51
2018-12-22T22:32:41.018Z,-1.50
2018-12-22T22:35:08.888Z,-1.68
2018-12-22T22:37:36.841Z,-1.62
2018-12-22T22:40:04.846Z,-1.58
2018-12-22T22:42:32.744Z,-1.55
2018-12-22T22:45:00.635Z,-1.49
2018-12-22T22:47:28.531Z,-1.39
2018-12-22T22:49:56.507Z,-1.46
2018-12-22T22:52:24.484Z,-1.55
2018-12-22T22:54:52.416Z,-1.49
2018-12-22T22:57:20.335Z,-1.22
2018-12-22T22:59:48.431Z,-1.35
2018-12-22T23:02:16.394Z,-1.39
2018-12-22T23:04:44.258Z,-1.33
2018-12-22T23:07:12.191Z,-1.23
2018-12-22T23:09:40.160Z,-1.30
2018-12-22T23:12:08.062Z,-1.29
2018-12-22T23:14:35.961Z,-1.23
2018-12-22T23:17:03.903Z,-1.13
2018-12-22T23:19:31.817Z,-0.85
2018-12-22T23:21:59.786Z,-0.73
2018-12-22T23:24:27.661Z,-0.76
2018-12-22T23:26:55.710Z,-0.93
2018-12-22T23:29:23.633Z,-1.00
2018-12-22T23:31:51.488Z,-0.95
2018-12-22T23:34:19.506Z,-1.00
2018-12-22T23:36:47.380Z,-1.00
2018-12-22T23:39:15.258Z,-0.68
2018-12-22T23:41:43.161Z,-0.51
2018-12-22T23:44:11.031Z,-0.58
2018-12-22T23:46:38.978Z,-0.66
2018-12-22T23:49:06.848Z,-0.67
2018-12-22T23:51:34.720Z,-0.61
2018-12-22T23:54:02.611Z,-0.56
2018-12-22T23:56:30.523Z,-0.52
2018-12-22T23:58:58.429Z,-0.46
